createdAt,value
2023-05-05T00:00:00.693Z,69.30
2023-05-05T00:02:29.283Z,69.70
2023-05-05T00:04:58.879Z,69.90
2023-05-05T00:07:27.072Z,69.80
2023-05-05T00:09:55.468Z,70.20
2023-05-05T00:12:23.646Z,70.40
2023-05-05T00:14:52.362Z,71.00
2023-05-05T00:17:20.777Z,70.60
2023-05-05T00:19:48.871Z,70.60
2023-05-05T00:22:19.221Z,70.10
2023-05-05T00:24:47.419Z,70.90
2023-05-05T00:27:15.584Z,71.60
2023-05-05T00:29:43.683Z,71.70
2023-05-05T00:32:11.785Z,70.90
2023-05-05T00:34:39.885Z,71.10
2023-05-05T00:37:08.024Z,70.80
2023-05-05T00:39:38.114Z,71.30
2023-05-05T00:42:06.350Z,71.30
2023-05-05T00:44:37.264Z,71.40
2023-05-05T00:47:05.787Z,71.10
2023-05-05T00:49:34.657Z,71.50
2023-05-05T00:52:03.868Z,71.40
2023-05-05T00:54:32.318Z,71.10
2023-05-05T00:57:03.142Z,71.00
2023-05-05T00:59:31.475Z,71.80
2023-05-05T01:01:59.825Z,71.90
2023-05-05T01:07:26.701Z,71.80
2023-05-05T01:10:15.706Z,71.90
2023-05-05T01:12:53.746Z,71.90
2023-05-05T01:15:26.413Z,71.60
2023-05-05T01:17:57.929Z,71.70
2023-05-05T01:20:30.323Z,71.40
2023-05-05T01:23:01.021Z,71.40
2023-05-05T01:25:38.140Z,71.40
2023-05-05T01:28:20.659Z,71.50
2023-05-05T01:30:55.777Z,71.60
2023-05-05T01:33:26.799Z,71.40
2023-05-05T01:35:57.539Z,71.30
2023-05-05T01:38:28.183Z,71.40
2023-05-05T01:40:58.949Z,71.40
2023-05-05T01:43:28.761Z,72.20
2023-05-05T01:45:57.293Z,71.60
2023-05-05T01:48:26.967Z,71.80
2023-05-05T01:50:55.450Z,71.30
2023-05-05T01:53:25.058Z,71.30
2023-05-05T01:55:54.267Z,71.60
2023-05-05T01:58:23.545Z,72.40
2023-05-05T02:00:52.507Z,71.80
2023-05-05T02:03:22.728Z,72.30
2023-05-05T02:05:53.051Z,72.10
2023-05-05T02:08:21.827Z,72.30
2023-05-05T02:10:50.521Z,71.90
2023-05-05T02:13:19.233Z,71.90
2023-05-05T02:15:48.313Z,72.40
2023-05-05T02:18:16.925Z,71.70
2023-05-05T02:20:45.661Z,72.00
2023-05-05T02:23:15.627Z,71.90
2023-05-05T02:25:45.770Z,71.80
2023-05-05T02:28:23.869Z,71.50
2023-05-05T02:30:56.776Z,72.60
2023-05-05T02:33:26.942Z,72.20
2023-05-05T02:35:56.349Z,72.10
2023-05-05T02:38:29.684Z,72.20
2023-05-05T02:40:58.793Z,72.30
2023-05-05T02:43:28.339Z,72.60
2023-05-05T02:45:56.790Z,72.50
2023-05-05T02:48:25.339Z,72.50
2023-05-05T02:50:53.529Z,72.50
2023-05-05T02:53:24.473Z,72.70
2023-05-05T02:55:55.019Z,72.30
2023-05-05T02:58:25.316Z,72.50
2023-05-05T03:00:56.605Z,72.40
2023-05-05T03:03:27.298Z,72.60
2023-05-05T03:06:01.656Z,72.50
2023-05-05T03:08:31.134Z,72.80
2023-05-05T03:11:05.987Z,72.80
2023-05-05T03:13:35.676Z,72.70
2023-05-05T03:16:06.516Z,72.70
2023-05-05T03:18:35.762Z,72.90
2023-05-05T03:21:08.783Z,73.20
2023-05-05T03:23:37.572Z,72.90
2023-05-05T03:26:07.569Z,73.00
2023-05-05T03:28:36.072Z,72.80
2023-05-05T03:31:04.445Z,72.90
2023-05-05T03:33:32.756Z,73.00
2023-05-05T03:36:01.428Z,72.90
2023-05-05T03:38:29.953Z,72.90
2023-05-05T03:40:58.046Z,72.80
2023-05-05T03:43:27.639Z,72.90
2023-05-05T03:45:56.044Z,73.00
2023-05-05T03:48:24.650Z,73.00
2023-05-05T03:50:53.000Z,73.00
2023-05-05T03:53:21.131Z,72.90
2023-05-05T03:55:49.782Z,72.90
2023-05-05T03:58:18.353Z,72.70
2023-05-05T04:00:47.922Z,72.80
2023-05-05T04:03:16.629Z,72.90
2023-05-05T04:05:45.332Z,72.80
2023-05-05T04:08:13.809Z,72.70
2023-05-05T04:10:42.109Z,72.60
2023-05-05T04:13:10.641Z,72.70
2023-05-05T04:15:38.934Z,72.70
2023-05-05T04:18:08.758Z,72.60
2023-05-05T04:20:37.598Z,72.50
2023-05-05T04:23:06.172Z,72.30
2023-05-05T04:25:34.403Z,71.80
2023-05-05T04:28:02.883Z,71.80
2023-05-05T04:30:31.690Z,71.80
2023-05-05T04:32:59.948Z,71.90
2023-05-05T04:35:29.782Z,71.70
2023-05-05T04:37:58.262Z,71.70
2023-05-05T04:40:27.361Z,71.40
2023-05-05T04:42:55.726Z,71.50
2023-05-05T04:45:24.099Z,71.50
2023-05-05T04:47:52.835Z,71.50
2023-05-05T04:50:21.424Z,71.70
2023-05-05T04:52:52.643Z,71.70
2023-05-05T04:55:21.150Z,71.90
2023-05-05T04:57:49.530Z,72.00
2023-05-05T05:00:18.322Z,72.00
2023-05-05T05:02:46.692Z,72.50
2023-05-05T05:05:15.024Z,72.10
2023-05-05T05:07:44.078Z,71.50
2023-05-05T05:10:14.742Z,71.70
2023-05-05T05:12:43.212Z,69.50
2023-05-05T05:15:12.254Z,68.90
2023-05-05T05:17:40.986Z,69.60
2023-05-05T05:20:10.148Z,69.10
2023-05-05T05:22:39.295Z,66.10
2023-05-05T05:25:07.574Z,67.20
2023-05-05T05:27:37.083Z,64.80
2023-05-05T05:30:05.777Z,63.80
2023-05-05T05:32:34.069Z,61.40
2023-05-05T05:35:02.265Z,59.10
2023-05-05T05:37:32.119Z,58.10
2023-05-05T05:40:00.834Z,56.80
2023-05-05T05:42:29.505Z,56.20
2023-05-05T05:44:59.790Z,55.40
2023-05-05T05:47:28.135Z,55.10
2023-05-05T05:49:56.745Z,53.40
2023-05-05T05:52:25.123Z,52.20
2023-05-05T05:54:53.324Z,51.00
2023-05-05T05:57:22.738Z,51.30
2023-05-05T05:59:51.433Z,50.30
2023-05-05T06:02:21.531Z,49.30
2023-05-05T06:04:49.740Z,49.90
2023-05-05T06:07:18.075Z,48.80
2023-05-05T06:09:46.538Z,48.10
2023-05-05T06:12:15.069Z,48.80
2023-05-05T06:14:43.456Z,48.30
2023-05-05T06:17:11.915Z,48.00
2023-05-05T06:19:43.306Z,47.10
2023-05-05T06:22:11.491Z,46.10
2023-05-05T06:24:39.944Z,44.30
2023-05-05T06:27:08.915Z,43.90
2023-05-05T06:29:37.683Z,42.80
2023-05-05T06:32:08.326Z,42.10
2023-05-05T06:34:36.683Z,41.30
2023-05-05T06:37:06.281Z,40.50
2023-05-05T06:39:34.685Z,39.60
2023-05-05T06:42:04.213Z,38.70
2023-05-05T06:44:34.641Z,37.50
2023-05-05T06:47:03.023Z,36.50
2023-05-05T06:49:31.339Z,35.00
2023-05-05T06:52:00.008Z,36.60
2023-05-05T06:54:30.296Z,36.50
2023-05-05T06:56:59.645Z,36.10
2023-05-05T06:59:28.030Z,36.50
2023-05-05T07:01:56.638Z,36.90
2023-05-05T07:04:24.848Z,36.00
2023-05-05T07:06:53.031Z,35.60
2023-05-05T07:09:21.329Z,35.10
2023-05-05T07:11:51.315Z,34.70
2023-05-05T07:14:20.963Z,33.30
2023-05-05T07:16:51.552Z,34.10
2023-05-05T07:19:19.939Z,34.40
2023-05-05T07:21:48.861Z,34.90
2023-05-05T07:24:17.242Z,35.60
2023-05-05T07:26:45.456Z,36.30
2023-05-05T07:29:15.707Z,35.30
2023-05-05T07:31:43.870Z,35.80
2023-05-05T07:34:12.240Z,35.20
2023-05-05T07:36:40.881Z,35.30
2023-05-05T07:39:09.258Z,34.70
2023-05-05T07:41:38.152Z,33.80
2023-05-05T07:44:06.779Z,34.10
2023-05-05T07:46:36.638Z,34.90
2023-05-05T07:49:05.036Z,33.90
2023-05-05T07:51:34.594Z,33.60
2023-05-05T07:54:03.377Z,34.00
2023-05-05T07:56:31.913Z,32.10
2023-05-05T07:59:00.107Z,31.30
2023-05-05T08:01:28.255Z,31.20
2023-05-05T08:03:57.997Z,31.30
2023-05-05T08:06:28.673Z,30.00
2023-05-05T08:08:57.072Z,31.50
2023-05-05T08:11:27.769Z,30.40
2023-05-05T08:13:57.726Z,30.10
2023-05-05T08:16:26.052Z,29.90
2023-05-05T08:18:54.333Z,29.50
2023-05-05T08:21:23.989Z,29.40
2023-05-05T08:23:52.207Z,29.30
2023-05-05T08:26:20.479Z,29.50
2023-05-05T08:28:48.659Z,29.10
2023-05-05T08:31:17.012Z,28.80
2023-05-05T08:33:45.549Z,28.60
2023-05-05T08:36:14.255Z,27.90
2023-05-05T08:38:43.903Z,27.80
2023-05-05T08:41:14.750Z,27.90
2023-05-05T08:43:44.333Z,28.10
2023-05-05T08:46:13.263Z,28.20
2023-05-05T08:48:43.277Z,28.70
2023-05-05T08:51:14.528Z,28.40
2023-05-05T08:53:47.916Z,27.00
2023-05-05T08:56:16.441Z,27.00
2023-05-05T08:58:46.486Z,27.10
2023-05-05T09:01:15.703Z,27.00
2023-05-05T09:03:44.605Z,27.10
2023-05-05T09:06:13.525Z,26.60
2023-05-05T09:08:42.350Z,25.20
2023-05-05T09:11:11.859Z,25.60
2023-05-05T09:13:40.421Z,25.30
2023-05-05T09:16:09.197Z,25.60
2023-05-05T09:18:38.175Z,25.00
2023-05-05T09:21:19.674Z,25.30
2023-05-05T09:24:07.749Z,24.30
2023-05-05T09:26:38.927Z,23.90
2023-05-05T09:29:07.260Z,23.20
2023-05-05T09:31:36.550Z,24.50
2023-05-05T09:34:14.945Z,23.70
2023-05-05T09:36:44.300Z,25.30
2023-05-05T09:39:12.819Z,24.90
2023-05-05T09:41:43.852Z,25.20
2023-05-05T09:44:12.530Z,24.80
2023-05-05T09:46:51.255Z,23.60
2023-05-05T09:49:20.195Z,24.70
2023-05-05T09:51:48.673Z,23.70
2023-05-05T09:54:23.422Z,23.50
2023-05-05T09:56:53.529Z,23.90
2023-05-05T09:59:22.068Z,24.00
2023-05-05T10:01:50.806Z,24.30
2023-05-05T10:04:26.582Z,23.30
2023-05-05T10:06:56.100Z,22.50
2023-05-05T10:09:24.567Z,23.40
2023-05-05T10:11:54.759Z,23.10
2023-05-05T10:14:24.730Z,24.20
2023-05-05T10:16:54.774Z,24.00
2023-05-05T10:19:23.947Z,24.00
2023-05-05T10:21:52.822Z,22.60
2023-05-05T10:24:27.287Z,23.20
2023-05-05T10:26:57.587Z,23.30
2023-05-05T10:29:31.488Z,21.80
2023-05-05T10:32:16.254Z,21.90
2023-05-05T10:34:54.667Z,23.20
2023-05-05T10:37:23.980Z,23.10
2023-05-05T10:39:53.028Z,23.20
2023-05-05T10:42:23.731Z,22.70
2023-05-05T10:44:52.458Z,21.90
2023-05-05T10:47:21.968Z,20.70
2023-05-05T10:49:54.605Z,22.60
2023-05-05T10:52:27.358Z,22.30
2023-05-05T10:55:02.911Z,21.20
2023-05-05T10:57:33.640Z,22.40
2023-05-05T11:00:02.408Z,21.40
2023-05-05T11:02:31.870Z,22.00
2023-05-05T11:05:10.899Z,22.40
2023-05-05T11:07:39.728Z,20.60
2023-05-05T11:10:08.936Z,21.30
2023-05-05T11:12:58.004Z,20.70
2023-05-05T11:15:43.346Z,21.00
2023-05-05T11:18:30.012Z,20.20
2023-05-05T11:21:16.624Z,21.80
2023-05-05T11:23:46.029Z,20.10
2023-05-05T11:26:15.196Z,21.40
2023-05-05T11:28:57.371Z,22.00
2023-05-05T11:31:27.736Z,21.40
2023-05-05T11:33:56.194Z,22.10
2023-05-05T11:36:41.301Z,21.30
2023-05-05T11:39:10.212Z,21.70
2023-05-05T11:41:57.190Z,21.40
2023-05-05T11:44:31.114Z,21.00
2023-05-05T11:47:14.360Z,20.80
2023-05-05T11:49:44.204Z,21.40
2023-05-05T11:52:13.676Z,21.60
2023-05-05T11:54:47.649Z,21.40
2023-05-05T11:57:17.620Z,22.30
2023-05-05T11:59:56.106Z,22.30
2023-05-05T12:02:25.102Z,22.10
2023-05-05T12:04:55.419Z,21.60
2023-05-05T12:07:24.698Z,21.00
2023-05-05T12:09:53.527Z,21.10
2023-05-05T12:12:22.329Z,20.80
2023-05-05T12:14:52.425Z,20.70
2023-05-05T12:17:21.794Z,21.20
2023-05-05T12:19:50.981Z,22.30
2023-05-05T12:22:21.735Z,21.30
2023-05-05T12:24:56.667Z,22.10
2023-05-05T12:27:25.190Z,22.10
2023-05-05T12:29:55.115Z,22.40
2023-05-05T12:32:24.830Z,22.40
2023-05-05T12:34:57.609Z,22.60
2023-05-05T12:37:28.016Z,21.60
2023-05-05T12:39:56.292Z,21.20
2023-05-05T12:42:24.938Z,22.30
2023-05-05T12:44:53.555Z,21.50
2023-05-05T12:47:30.920Z,20.50
2023-05-05T12:50:02.926Z,20.40
2023-05-05T12:52:43.497Z,21.00
2023-05-05T12:55:12.526Z,20.60
2023-05-05T12:58:00.781Z,21.00
2023-05-05T13:00:30.151Z,21.80
2023-05-05T13:02:58.918Z,22.10
2023-05-05T13:05:30.577Z,22.70
2023-05-05T13:08:00.524Z,22.40
2023-05-05T13:10:31.499Z,23.00
2023-05-05T13:13:00.154Z,23.70
2023-05-05T13:15:28.386Z,23.60
2023-05-05T13:18:00.171Z,24.00
2023-05-05T13:20:28.684Z,23.20
2023-05-05T13:22:57.413Z,22.50
2023-05-05T13:25:27.320Z,21.80
2023-05-05T13:27:55.497Z,21.90
2023-05-05T13:30:24.309Z,22.70
2023-05-05T13:32:53.150Z,21.70
2023-05-05T13:35:21.406Z,22.20
2023-05-05T13:37:50.005Z,21.10
2023-05-05T13:40:18.506Z,21.00
2023-05-05T13:42:48.487Z,21.10
2023-05-05T13:45:19.611Z,22.80
2023-05-05T13:47:48.166Z,20.00
2023-05-05T13:50:16.537Z,21.60
2023-05-05T13:52:46.068Z,24.00
2023-05-05T13:55:14.262Z,23.40
2023-05-05T13:57:43.226Z,23.20
2023-05-05T14:00:13.929Z,23.00
2023-05-05T14:02:42.652Z,23.60
2023-05-05T14:05:11.526Z,24.60
2023-05-05T14:07:39.901Z,24.50
2023-05-05T14:10:08.972Z,25.50
2023-05-05T14:12:37.637Z,26.00
2023-05-05T14:15:06.896Z,25.00
2023-05-05T14:17:36.701Z,25.00
2023-05-05T14:20:05.651Z,25.20
2023-05-05T14:22:34.246Z,25.40
2023-05-05T14:25:02.768Z,25.50
2023-05-05T14:27:31.277Z,25.10
2023-05-05T14:29:59.781Z,24.90
2023-05-05T14:32:28.333Z,24.90
2023-05-05T14:34:58.538Z,25.20
2023-05-05T14:37:26.872Z,26.10
2023-05-05T14:39:56.149Z,26.90
2023-05-05T14:42:25.032Z,26.80
2023-05-05T14:44:53.707Z,27.70
2023-05-05T14:47:22.423Z,27.60
2023-05-05T14:49:50.921Z,27.90
2023-05-05T14:52:21.139Z,27.70
2023-05-05T14:54:49.547Z,29.10
2023-05-05T14:57:17.890Z,29.10
2023-05-05T14:59:51.250Z,29.40
2023-05-05T15:02:19.944Z,29.50
2023-05-05T15:04:49.726Z,30.00
2023-05-05T15:07:18.089Z,30.00
2023-05-05T15:09:47.898Z,30.00
2023-05-05T15:12:16.257Z,29.50
2023-05-05T15:14:44.770Z,30.10
2023-05-05T15:17:13.318Z,29.80
2023-05-05T15:19:41.665Z,29.90
2023-05-05T15:22:09.893Z,30.30
2023-05-05T15:24:38.589Z,30.30
2023-05-05T15:27:08.562Z,31.10
2023-05-05T15:29:36.684Z,31.20
2023-05-05T15:32:05.657Z,31.60
2023-05-05T15:34:34.244Z,31.30
2023-05-05T15:37:02.470Z,31.40
2023-05-05T15:39:31.115Z,31.10
2023-05-05T15:42:02.666Z,30.90
2023-05-05T15:44:32.329Z,31.10
2023-05-05T15:47:00.926Z,30.30
2023-05-05T15:49:29.545Z,30.60
2023-05-05T15:51:57.959Z,30.50
2023-05-05T15:54:26.137Z,30.90
2023-05-05T15:56:54.934Z,30.50
2023-05-05T15:59:23.565Z,31.00
2023-05-05T16:01:54.187Z,32.00
2023-05-05T16:04:22.514Z,31.60
2023-05-05T16:06:50.690Z,32.90
2023-05-05T16:09:19.056Z,33.20
2023-05-05T16:11:47.674Z,34.00
2023-05-05T16:14:16.197Z,34.50
2023-05-05T16:16:44.488Z,35.00
2023-05-05T16:19:14.508Z,34.70
2023-05-05T16:21:42.998Z,34.80
2023-05-05T16:24:15.986Z,34.80
2023-05-05T16:26:45.038Z,35.90
2023-05-05T16:29:13.590Z,35.40
2023-05-05T16:31:42.164Z,35.60
2023-05-05T16:34:10.524Z,35.70
2023-05-05T16:36:42.007Z,35.90
2023-05-05T16:39:12.028Z,35.40
2023-05-05T16:41:40.664Z,35.50
2023-05-05T16:44:09.474Z,36.20
2023-05-05T16:46:40.119Z,35.90
2023-05-05T16:49:08.746Z,35.90
2023-05-05T16:51:37.573Z,36.20
2023-05-05T16:54:07.595Z,36.50
2023-05-05T16:56:36.062Z,36.40
2023-05-05T16:59:04.391Z,36.40
2023-05-05T17:01:33.874Z,37.10
2023-05-05T17:04:02.524Z,37.30
2023-05-05T17:06:31.942Z,37.90
2023-05-05T17:09:00.763Z,37.90
2023-05-05T17:11:30.539Z,38.00
2023-05-05T17:13:59.324Z,37.40
2023-05-05T17:16:27.899Z,37.60
2023-05-05T17:18:56.398Z,38.10
2023-05-05T17:21:24.886Z,38.10
2023-05-05T17:23:53.136Z,38.30
2023-05-05T17:26:21.355Z,38.10
2023-05-05T17:28:51.224Z,37.90
2023-05-05T17:31:19.459Z,37.90
2023-05-05T17:33:48.384Z,37.90
2023-05-05T17:36:16.921Z,38.10
2023-05-05T17:38:45.359Z,38.20
2023-05-05T17:41:13.817Z,38.00
2023-05-05T17:43:42.005Z,38.20
2023-05-05T17:46:11.941Z,38.60
2023-05-05T17:48:40.135Z,38.60
2023-05-05T17:51:08.680Z,38.40
2023-05-05T17:53:37.201Z,38.50
2023-05-05T17:56:07.994Z,38.60
2023-05-05T17:58:37.090Z,38.50
2023-05-05T18:01:06.264Z,38.50
2023-05-05T18:03:37.967Z,38.40
2023-05-05T18:06:08.308Z,38.50
2023-05-05T18:08:36.610Z,38.40
2023-05-05T18:11:05.147Z,38.20
2023-05-05T18:13:33.688Z,38.10
2023-05-05T18:16:01.913Z,38.10
2023-05-05T18:18:30.717Z,38.30
2023-05-05T18:21:00.491Z,37.90
2023-05-05T18:23:28.959Z,38.20
2023-05-05T18:25:57.648Z,38.30
2023-05-05T18:28:26.755Z,38.60
2023-05-05T18:30:55.305Z,38.60
2023-05-05T18:33:23.608Z,38.70
2023-05-05T18:35:52.386Z,38.60
2023-05-05T18:38:22.513Z,38.70
2023-05-05T18:40:51.094Z,38.70
2023-05-05T18:43:19.322Z,38.70
2023-05-05T18:45:47.641Z,39.00
2023-05-05T18:48:16.544Z,38.90
2023-05-05T18:50:45.796Z,39.20
2023-05-05T18:53:15.027Z,39.20
2023-05-05T18:55:44.662Z,39.50
2023-05-05T18:58:13.020Z,39.80
2023-05-05T19:00:41.619Z,40.00
2023-05-05T19:03:10.238Z,40.30
2023-05-05T19:05:40.759Z,40.60
2023-05-05T19:08:09.467Z,40.60
2023-05-05T19:10:38.115Z,40.70
2023-05-05T19:13:08.249Z,40.90
2023-05-05T19:15:36.500Z,40.90
2023-05-05T19:18:05.693Z,41.20
2023-05-05T19:20:34.389Z,41.40
2023-05-05T19:23:05.238Z,41.70
2023-05-05T19:25:33.955Z,42.00
2023-05-05T19:28:02.272Z,42.10
2023-05-05T19:30:32.789Z,42.20
2023-05-05T19:33:01.430Z,42.30
2023-05-05T19:35:31.244Z,42.40
2023-05-05T19:37:59.771Z,42.70
2023-05-05T19:40:28.300Z,43.00
2023-05-05T19:42:57.671Z,43.30
2023-05-05T19:45:26.189Z,43.40
2023-05-05T19:47:56.852Z,43.70
2023-05-05T19:50:26.481Z,43.30
2023-05-05T19:52:55.554Z,43.30
2023-05-05T19:55:24.557Z,43.10
2023-05-05T19:57:53.259Z,43.10
2023-05-05T20:00:24.533Z,43.20
2023-05-05T20:02:52.949Z,43.10
2023-05-05T20:05:23.693Z,43.10
2023-05-05T20:07:54.688Z,43.10
2023-05-05T20:10:22.891Z,43.30
2023-05-05T20:12:52.040Z,43.40
2023-05-05T20:15:22.602Z,43.60
2023-05-05T20:17:51.476Z,44.10
2023-05-05T20:20:20.481Z,44.30
2023-05-05T20:22:50.862Z,43.70
2023-05-05T20:25:19.970Z,43.80
2023-05-05T20:27:48.536Z,43.80
2023-05-05T20:30:19.403Z,43.90
2023-05-05T20:32:47.980Z,44.00
2023-05-05T20:35:16.838Z,44.90
2023-05-05T20:37:45.862Z,44.90
2023-05-05T20:40:17.513Z,46.10
2023-05-05T20:42:46.060Z,46.40
2023-05-05T20:45:14.803Z,46.80
2023-05-05T20:47:43.848Z,48.60
2023-05-05T20:50:12.578Z,49.70
2023-05-05T20:52:40.977Z,51.30
2023-05-05T20:55:09.859Z,51.50
2023-05-05T20:57:39.888Z,53.30
2023-05-05T21:00:09.343Z,51.90
2023-05-05T21:02:38.727Z,51.60
2023-05-05T21:05:08.059Z,49.40
2023-05-05T21:07:37.083Z,48.70
2023-05-05T21:10:06.175Z,48.20
2023-05-05T21:12:35.069Z,49.10
2023-05-05T21:15:05.671Z,49.00
2023-05-05T21:17:34.076Z,48.00
2023-05-05T21:20:02.383Z,48.40
2023-05-05T21:22:31.139Z,48.70
2023-05-05T21:25:09.552Z,48.30
2023-05-05T21:27:38.084Z,48.30
2023-05-05T21:30:10.819Z,48.40
2023-05-05T21:32:40.102Z,49.00
2023-05-05T21:35:09.309Z,48.90
2023-05-05T21:37:38.667Z,48.70
2023-05-05T21:40:09.668Z,49.00
2023-05-05T21:42:38.157Z,49.10
2023-05-05T21:45:08.692Z,49.90
2023-05-05T21:47:37.065Z,49.40
2023-05-05T21:50:05.531Z,50.20
2023-05-05T21:52:33.894Z,50.80
2023-05-05T21:55:02.493Z,51.50
2023-05-05T21:57:31.080Z,51.50
2023-05-05T21:59:59.560Z,51.70
2023-05-05T22:02:30.059Z,52.50
2023-05-05T22:04:58.805Z,52.90
2023-05-05T22:07:27.198Z,53.60
2023-05-05T22:09:55.761Z,52.40
2023-05-05T22:12:24.017Z,53.40
2023-05-05T22:14:52.572Z,53.40
2023-05-05T22:17:21.125Z,53.70
2023-05-05T22:19:51.693Z,54.10
2023-05-05T22:22:20.325Z,54.10
2023-05-05T22:24:49.011Z,53.80
2023-05-05T22:27:17.543Z,52.90
2023-05-05T22:29:46.868Z,53.50
2023-05-05T22:32:15.321Z,53.40
2023-05-05T22:34:44.258Z,53.50
2023-05-05T22:37:14.743Z,53.60
2023-05-05T22:39:43.546Z,53.40
2023-05-05T22:42:11.776Z,53.20
2023-05-05T22:44:40.270Z,53.30
2023-05-05T22:47:09.255Z,54.10
2023-05-05T22:49:37.821Z,54.60
2023-05-05T22:52:06.354Z,54.80
2023-05-05T22:54:37.175Z,54.90
2023-05-05T22:57:05.905Z,54.80
2023-05-05T22:59:34.152Z,54.50
2023-05-05T23:02:02.405Z,54.10
2023-05-05T23:04:30.597Z,54.30
2023-05-05T23:06:58.831Z,54.50
2023-05-05T23:09:27.172Z,55.30
2023-05-05T23:11:57.172Z,55.60
2023-05-05T23:14:26.161Z,55.40
2023-05-05T23:16:54.647Z,55.80
2023-05-05T23:19:24.058Z,56.10
2023-05-05T23:21:53.849Z,56.40
2023-05-05T23:24:22.629Z,56.60
2023-05-05T23:26:52.167Z,57.10
2023-05-05T23:29:21.788Z,57.80
2023-05-05T23:31:50.329Z,57.20
2023-05-05T23:34:18.556Z,57.60
2023-05-05T23:36:47.089Z,57.50
2023-05-05T23:39:15.748Z,57.20
2023-05-05T23:41:44.312Z,56.60
2023-05-05T23:44:12.583Z,57.40
2023-05-05T23:46:42.819Z,57.00
2023-05-05T23:49:11.572Z,57.30
2023-05-05T23:51:40.283Z,57.80
2023-05-05T23:54:08.821Z,57.40
2023-05-05T23:56:37.488Z,57.80
2023-05-05T23:59:06.278Z,58.40
